sensor_id;sensor_type;location;lat;lon;timestamp;P1;durP1;ratioP1;P2;durP2;ratioP2
2474;SDS011;1248;48.694;10.160;2023-07-30T00:00:26;7.23;;;6.53;;
2474;SDS011;1248;48.694;10.160;2023-07-30T00:02:53;6.77;;;6.07;;
2474;SDS011;1248;48.694;10.160;2023-07-30T00:05:20;8.10;;;7.30;;
2474;SDS011;1248;48.694;10.160;2023-07-30T00:07:47;8.10;;;7.37;;
2474;SDS011;1248;48.694;10.160;2023-07-30T00:10:14;7.73;;;6.90;;
2474;SDS011;1248;48.694;10.160;2023-07-30T00:12:42;12.00;;;7.70;;
2474;SDS011;1248;48.694;10.160;2023-07-30T00:15:10;9.80;;;7.40;;
2474;SDS011;1248;48.694;10.160;2023-07-30T00:17:38;8.87;;;6.37;;
2474;SDS011;1248;48.694;10.160;2023-07-30T00:20:06;6.57;;;5.97;;
2474;SDS011;1248;48.694;10.160;2023-07-30T00:22:34;5.03;;;2.90;;
2474;SDS011;1248;48.694;10.160;2023-07-30T00:25:01;0.90;;;0.60;;
2474;SDS011;1248;48.694;10.160;2023-07-30T00:27:29;0.90;;;0.60;;
2474;SDS011;1248;48.694;10.160;2023-07-30T00:29:57;0.90;;;0.60;;
2474;SDS011;1248;48.694;10.160;2023-07-30T00:32:24;0.90;;;0.60;;
2474;SDS011;1248;48.694;10.160;2023-07-30T00:34:51;0.90;;;0.60;;
2474;SDS011;1248;48.694;10.160;2023-07-30T00:37:18;0.90;;;0.60;;
2474;SDS011;1248;48.694;10.160;2023-07-30T00:39:45;0.90;;;0.60;;
2474;SDS011;1248;48.694;10.160;2023-07-30T00:42:12;0.90;;;0.60;;
2474;SDS011;1248;48.694;10.160;2023-07-30T00:44:39;0.90;;;0.60;;
2474;SDS011;1248;48.694;10.160;2023-07-30T00:47:08;0.90;;;0.60;;
2474;SDS011;1248;48.694;10.160;2023-07-30T00:49:35;0.90;;;0.60;;
2474;SDS011;1248;48.694;10.160;2023-07-30T00:52:02;0.90;;;0.60;;
2474;SDS011;1248;48.694;10.160;2023-07-30T00:54:30;0.90;;;0.60;;
2474;SDS011;1248;48.694;10.160;2023-07-30T00:56:57;0.80;;;0.60;;
2474;SDS011;1248;48.694;10.160;2023-07-30T00:59:24;0.90;;;0.60;;
2474;SDS011;1248;48.694;10.160;2023-07-30T01:01:52;0.90;;;0.60;;
2474;SDS011;1248;48.694;10.160;2023-07-30T01:04:20;0.80;;;0.60;;
2474;SDS011;1248;48.694;10.160;2023-07-30T01:06:48;0.87;;;0.60;;
2474;SDS011;1248;48.694;10.160;2023-07-30T01:09:15;0.80;;;0.60;;
2474;SDS011;1248;48.694;10.160;2023-07-30T01:11:42;0.90;;;0.60;;
2474;SDS011;1248;48.694;10.160;2023-07-30T01:14:10;0.90;;;0.60;;
2474;SDS011;1248;48.694;10.160;2023-07-30T01:16:37;0.90;;;0.60;;
2474;SDS011;1248;48.694;10.160;2023-07-30T01:19:04;0.80;;;0.60;;
2474;SDS011;1248;48.694;10.160;2023-07-30T01:21:34;0.80;;;0.60;;
2474;SDS011;1248;48.694;10.160;2023-07-30T01:24:01;0.80;;;0.60;;
2474;SDS011;1248;48.694;10.160;2023-07-30T01:26:30;0.80;;;0.60;;
2474;SDS011;1248;48.694;10.160;2023-07-30T01:29:00;0.83;;;0.60;;
2474;SDS011;1248;48.694;10.160;2023-07-30T01:31:28;0.83;;;0.60;;
2474;SDS011;1248;48.694;10.160;2023-07-30T01:33:57;0.90;;;0.60;;
2474;SDS011;1248;48.694;10.160;2023-07-30T01:36:24;0.80;;;0.60;;
2474;SDS011;1248;48.694;10.160;2023-07-30T01:38:52;0.80;;;0.60;;
2474;SDS011;1248;48.694;10.160;2023-07-30T01:41:20;0.80;;;0.60;;
2474;SDS011;1248;48.694;10.160;2023-07-30T01:47:09;0.87;;;0.60;;
2474;SDS011;1248;48.694;10.160;2023-07-30T01:49:36;0.80;;;0.60;;
2474;SDS011;1248;48.694;10.160;2023-07-30T01:52:03;0.90;;;0.60;;
2474;SDS011;1248;48.694;10.160;2023-07-30T01:54:32;0.80;;;0.60;;
2474;SDS011;1248;48.694;10.160;2023-07-30T01:56:59;0.80;;;0.60;;
2474;SDS011;1248;48.694;10.160;2023-07-30T01:59:26;0.90;;;0.60;;
2474;SDS011;1248;48.694;10.160;2023-07-30T02:01:53;0.90;;;0.60;;
2474;SDS011;1248;48.694;10.160;2023-07-30T02:04:20;0.80;;;0.60;;
2474;SDS011;1248;48.694;10.160;2023-07-30T02:06:47;0.87;;;0.60;;
2474;SDS011;1248;48.694;10.160;2023-07-30T02:09:15;2.03;;;1.90;;
2474;SDS011;1248;48.694;10.160;2023-07-30T02:11:43;0.90;;;0.60;;
2474;SDS011;1248;48.694;10.160;2023-07-30T02:14:10;0.80;;;0.60;;
2474;SDS011;1248;48.694;10.160;2023-07-30T02:16:37;1.00;;;0.90;;
2474;SDS011;1248;48.694;10.160;2023-07-30T02:19:04;0.80;;;0.60;;
2474;SDS011;1248;48.694;10.160;2023-07-30T02:21:31;0.83;;;0.60;;
2474;SDS011;1248;48.694;10.160;2023-07-30T02:24:01;0.90;;;0.60;;
2474;SDS011;1248;48.694;10.160;2023-07-30T02:26:29;0.80;;;0.60;;
2474;SDS011;1248;48.694;10.160;2023-07-30T02:28:57;0.80;;;0.60;;
2474;SDS011;1248;48.694;10.160;2023-07-30T02:31:26;0.80;;;0.60;;
2474;SDS011;1248;48.694;10.160;2023-07-30T02:33:53;0.80;;;0.60;;
2474;SDS011;1248;48.694;10.160;2023-07-30T02:36:20;0.80;;;0.60;;
2474;SDS011;1248;48.694;10.160;2023-07-30T02:38:47;0.90;;;0.60;;
2474;SDS011;1248;48.694;10.160;2023-07-30T02:41:14;0.80;;;0.60;;
2474;SDS011;1248;48.694;10.160;2023-07-30T02:43:41;0.90;;;0.60;;
2474;SDS011;1248;48.694;10.160;2023-07-30T02:46:09;0.80;;;0.60;;
2474;SDS011;1248;48.694;10.160;2023-07-30T02:48:36;0.80;;;0.60;;
2474;SDS011;1248;48.694;10.160;2023-07-30T02:51:03;0.83;;;0.60;;
2474;SDS011;1248;48.694;10.160;2023-07-30T02:53:31;0.80;;;0.60;;
2474;SDS011;1248;48.694;10.160;2023-07-30T02:55:58;0.90;;;0.60;;
2474;SDS011;1248;48.694;10.160;2023-07-30T02:58:25;0.90;;;0.60;;
2474;SDS011;1248;48.694;10.160;2023-07-30T03:00:52;0.83;;;0.60;;
2474;SDS011;1248;48.694;10.160;2023-07-30T03:03:20;0.80;;;0.60;;
2474;SDS011;1248;48.694;10.160;2023-07-30T03:05:48;0.80;;;0.50;;
2474;SDS011;1248;48.694;10.160;2023-07-30T03:08:15;0.83;;;0.60;;
2474;SDS011;1248;48.694;10.160;2023-07-30T03:10:42;0.80;;;0.57;;
2474;SDS011;1248;48.694;10.160;2023-07-30T03:13:09;0.80;;;0.60;;
2474;SDS011;1248;48.694;10.160;2023-07-30T03:15:36;0.80;;;0.60;;
2474;SDS011;1248;48.694;10.160;2023-07-30T03:18:03;0.80;;;0.60;;
2474;SDS011;1248;48.694;10.160;2023-07-30T03:20:31;0.80;;;0.60;;
2474;SDS011;1248;48.694;10.160;2023-07-30T03:22:58;0.90;;;0.60;;
2474;SDS011;1248;48.694;10.160;2023-07-30T03:25:25;0.80;;;0.60;;
2474;SDS011;1248;48.694;10.160;2023-07-30T03:27:52;0.90;;;0.60;;
2474;SDS011;1248;48.694;10.160;2023-07-30T03:30:19;2.27;;;2.03;;
2474;SDS011;1248;48.694;10.160;2023-07-30T03:32:46;0.80;;;0.60;;
2474;SDS011;1248;48.694;10.160;2023-07-30T03:35:13;0.90;;;0.60;;
2474;SDS011;1248;48.694;10.160;2023-07-30T03:37:42;0.90;;;0.60;;
2474;SDS011;1248;48.694;10.160;2023-07-30T03:40:09;0.80;;;0.60;;
2474;SDS011;1248;48.694;10.160;2023-07-30T03:42:36;0.80;;;0.60;;
2474;SDS011;1248;48.694;10.160;2023-07-30T03:45:04;0.87;;;0.60;;
2474;SDS011;1248;48.694;10.160;2023-07-30T03:47:31;0.87;;;0.60;;
2474;SDS011;1248;48.694;10.160;2023-07-30T03:49:59;0.80;;;0.60;;
2474;SDS011;1248;48.694;10.160;2023-07-30T03:52:26;0.90;;;0.60;;
2474;SDS011;1248;48.694;10.160;2023-07-30T03:54:54;0.80;;;0.60;;
2474;SDS011;1248;48.694;10.160;2023-07-30T03:57:21;0.87;;;0.60;;
2474;SDS011;1248;48.694;10.160;2023-07-30T03:59:48;0.80;;;0.60;;
2474;SDS011;1248;48.694;10.160;2023-07-30T04:02:15;0.90;;;0.60;;
2474;SDS011;1248;48.694;10.160;2023-07-30T04:04:42;0.80;;;0.60;;
2474;SDS011;1248;48.694;10.160;2023-07-30T04:07:10;0.80;;;0.60;;
2474;SDS011;1248;48.694;10.160;2023-07-30T04:09:37;0.90;;;0.60;;
2474;SDS011;1248;48.694;10.160;2023-07-30T04:12:06;0.87;;;0.60;;
2474;SDS011;1248;48.694;10.160;2023-07-30T04:14:33;0.83;;;0.60;;
2474;SDS011;1248;48.694;10.160;2023-07-30T04:17:00;0.90;;;0.60;;
2474;SDS011;1248;48.694;10.160;2023-07-30T04:19:27;0.90;;;0.60;;
2474;SDS011;1248;48.694;10.160;2023-07-30T04:21:54;0.80;;;0.60;;
2474;SDS011;1248;48.694;10.160;2023-07-30T04:24:21;0.90;;;0.60;;
2474;SDS011;1248;48.694;10.160;2023-07-30T04:26:48;0.80;;;0.60;;
2474;SDS011;1248;48.694;10.160;2023-07-30T04:29:17;0.90;;;0.60;;
2474;SDS011;1248;48.694;10.160;2023-07-30T04:31:44;0.90;;;0.60;;
2474;SDS011;1248;48.694;10.160;2023-07-30T04:34:11;0.90;;;0.60;;
2474;SDS011;1248;48.694;10.160;2023-07-30T04:36:38;0.80;;;0.60;;
2474;SDS011;1248;48.694;10.160;2023-07-30T04:39:05;0.90;;;0.60;;
2474;SDS011;1248;48.694;10.160;2023-07-30T04:41:32;0.80;;;0.60;;
2474;SDS011;1248;48.694;10.160;2023-07-30T04:43:59;0.90;;;0.60;;
2474;SDS011;1248;48.694;10.160;2023-07-30T04:46:27;0.80;;;0.60;;
2474;SDS011;1248;48.694;10.160;2023-07-30T04:48:55;0.90;;;0.60;;
2474;SDS011;1248;48.694;10.160;2023-07-30T04:51:22;0.80;;;0.60;;
2474;SDS011;1248;48.694;10.160;2023-07-30T04:53:49;0.80;;;0.60;;
2474;SDS011;1248;48.694;10.160;2023-07-30T04:56:16;0.80;;;0.60;;
2474;SDS011;1248;48.694;10.160;2023-07-30T04:58:43;0.80;;;0.60;;
2474;SDS011;1248;48.694;10.160;2023-07-30T05:01:10;0.80;;;0.60;;
2474;SDS011;1248;48.694;10.160;2023-07-30T05:03:39;0.80;;;0.60;;
2474;SDS011;1248;48.694;10.160;2023-07-30T05:06:06;0.80;;;0.60;;
2474;SDS011;1248;48.694;10.160;2023-07-30T05:08:33;0.90;;;0.60;;
2474;SDS011;1248;48.694;10.160;2023-07-30T05:11:00;0.80;;;0.60;;
2474;SDS011;1248;48.694;10.160;2023-07-30T05:13:27;0.90;;;0.60;;
2474;SDS011;1248;48.694;10.160;2023-07-30T05:15:54;0.80;;;0.60;;
2474;SDS011;1248;48.694;10.160;2023-07-30T05:18:21;0.80;;;0.60;;
2474;SDS011;1248;48.694;10.160;2023-07-30T05:20:50;0.80;;;0.60;;
2474;SDS011;1248;48.694;10.160;2023-07-30T05:23:19;0.80;;;0.60;;
2474;SDS011;1248;48.694;10.160;2023-07-30T05:25:46;0.80;;;0.60;;
2474;SDS011;1248;48.694;10.160;2023-07-30T05:28:13;0.90;;;0.60;;
2474;SDS011;1248;48.694;10.160;2023-07-30T05:30:40;0.90;;;0.60;;
2474;SDS011;1248;48.694;10.160;2023-07-30T05:33:07;0.80;;;0.60;;
2474;SDS011;1248;48.694;10.160;2023-07-30T05:35:34;0.80;;;0.60;;
2474;SDS011;1248;48.694;10.160;2023-07-30T05:38:03;0.80;;;0.60;;
2474;SDS011;1248;48.694;10.160;2023-07-30T05:40:30;0.80;;;0.60;;
2474;SDS011;1248;48.694;10.160;2023-07-30T05:42:57;0.80;;;0.60;;
2474;SDS011;1248;48.694;10.160;2023-07-30T05:45:26;0.80;;;0.60;;
2474;SDS011;1248;48.694;10.160;2023-07-30T05:47:53;0.80;;;0.60;;
2474;SDS011;1248;48.694;10.160;2023-07-30T05:50:20;0.80;;;0.60;;
2474;SDS011;1248;48.694;10.160;2023-07-30T05:52:47;0.80;;;0.60;;
2474;SDS011;1248;48.694;10.160;2023-07-30T05:55:15;0.87;;;0.60;;
2474;SDS011;1248;48.694;10.160;2023-07-30T05:57:43;0.90;;;0.60;;
2474;SDS011;1248;48.694;10.160;2023-07-30T06:00:10;0.80;;;0.60;;
2474;SDS011;1248;48.694;10.160;2023-07-30T06:02:37;0.90;;;0.60;;
2474;SDS011;1248;48.694;10.160;2023-07-30T06:05:05;0.80;;;0.60;;
2474;SDS011;1248;48.694;10.160;2023-07-30T06:07:32;0.80;;;0.60;;
2474;SDS011;1248;48.694;10.160;2023-07-30T06:09:59;0.90;;;0.60;;
2474;SDS011;1248;48.694;10.160;2023-07-30T06:12:27;0.83;;;0.60;;
2474;SDS011;1248;48.694;10.160;2023-07-30T06:14:54;1.00;;;0.90;;
2474;SDS011;1248;48.694;10.160;2023-07-30T06:17:21;0.80;;;0.60;;
2474;SDS011;1248;48.694;10.160;2023-07-30T06:19:48;0.80;;;0.60;;
2474;SDS011;1248;48.694;10.160;2023-07-30T06:22:15;0.80;;;0.50;;
2474;SDS011;1248;48.694;10.160;2023-07-30T06:24:43;0.80;;;0.60;;
2474;SDS011;1248;48.694;10.160;2023-07-30T06:27:10;0.90;;;0.60;;
2474;SDS011;1248;48.694;10.160;2023-07-30T06:29:39;0.90;;;0.60;;
2474;SDS011;1248;48.694;10.160;2023-07-30T06:32:06;0.80;;;0.50;;
2474;SDS011;1248;48.694;10.160;2023-07-30T06:34:34;0.90;;;0.60;;
2474;SDS011;1248;48.694;10.160;2023-07-30T06:37:01;0.87;;;0.60;;
2474;SDS011;1248;48.694;10.160;2023-07-30T06:39:28;0.87;;;0.57;;
2474;SDS011;1248;48.694;10.160;2023-07-30T06:41:55;0.90;;;0.60;;
2474;SDS011;1248;48.694;10.160;2023-07-30T06:44:22;0.90;;;0.60;;
2474;SDS011;1248;48.694;10.160;2023-07-30T06:46:51;6.17;;;5.60;;
2474;SDS011;1248;48.694;10.160;2023-07-30T06:49:18;0.87;;;0.50;;
2474;SDS011;1248;48.694;10.160;2023-07-30T06:51:45;0.87;;;0.60;;
2474;SDS011;1248;48.694;10.160;2023-07-30T06:54:12;0.83;;;0.50;;
2474;SDS011;1248;48.694;10.160;2023-07-30T06:56:39;0.90;;;0.60;;
2474;SDS011;1248;48.694;10.160;2023-07-30T06:59:06;0.90;;;0.60;;
2474;SDS011;1248;48.694;10.160;2023-07-30T07:01:33;0.83;;;0.60;;
2474;SDS011;1248;48.694;10.160;2023-07-30T07:04:02;0.90;;;0.50;;
2474;SDS011;1248;48.694;10.160;2023-07-30T07:06:29;0.80;;;0.60;;
2474;SDS011;1248;48.694;10.160;2023-07-30T07:08:56;0.90;;;0.50;;
2474;SDS011;1248;48.694;10.160;2023-07-30T07:11:23;0.80;;;0.60;;
2474;SDS011;1248;48.694;10.160;2023-07-30T07:13:50;0.83;;;0.50;;
2474;SDS011;1248;48.694;10.160;2023-07-30T07:16:18;0.80;;;0.50;;
2474;SDS011;1248;48.694;10.160;2023-07-30T07:18:45;0.87;;;0.60;;
2474;SDS011;1248;48.694;10.160;2023-07-30T07:21:15;0.90;;;0.50;;
2474;SDS011;1248;48.694;10.160;2023-07-30T07:23:42;2.10;;;1.70;;
2474;SDS011;1248;48.694;10.160;2023-07-30T07:26:09;6.17;;;2.70;;
2474;SDS011;1248;48.694;10.160;2023-07-30T07:28:37;2.43;;;2.00;;
2474;SDS011;1248;48.694;10.160;2023-07-30T07:31:04;3.03;;;2.60;;
2474;SDS011;1248;48.694;10.160;2023-07-30T07:33:31;2.37;;;2.10;;
2474;SDS011;1248;48.694;10.160;2023-07-30T07:36:04;2.20;;;2.00;;
2474;SDS011;1248;48.694;10.160;2023-07-30T07:38:33;2.80;;;2.20;;
2474;SDS011;1248;48.694;10.160;2023-07-30T07:41:01;3.97;;;2.70;;
2474;SDS011;1248;48.694;10.160;2023-07-30T07:43:28;2.43;;;2.07;;
2474;SDS011;1248;48.694;10.160;2023-07-30T07:45:55;2.23;;;2.03;;
2474;SDS011;1248;48.694;10.160;2023-07-30T07:48:22;2.97;;;1.67;;
2474;SDS011;1248;48.694;10.160;2023-07-30T07:50:49;2.37;;;2.17;;
2474;SDS011;1248;48.694;10.160;2023-07-30T07:53:16;3.90;;;2.50;;
2474;SDS011;1248;48.694;10.160;2023-07-30T07:55:44;2.40;;;2.10;;
2474;SDS011;1248;48.694;10.160;2023-07-30T07:58:11;2.37;;;2.10;;
2474;SDS011;1248;48.694;10.160;2023-07-30T08:00:38;1.97;;;1.73;;
2474;SDS011;1248;48.694;10.160;2023-07-30T08:03:05;2.80;;;1.80;;
2474;SDS011;1248;48.694;10.160;2023-07-30T08:05:32;5.13;;;2.43;;
2474;SDS011;1248;48.694;10.160;2023-07-30T08:08:01;3.90;;;1.80;;
2474;SDS011;1248;48.694;10.160;2023-07-30T08:10:28;4.07;;;2.10;;
2474;SDS011;1248;48.694;10.160;2023-07-30T08:12:57;4.77;;;1.93;;
2474;SDS011;1248;48.694;10.160;2023-07-30T08:15:24;4.30;;;2.20;;
2474;SDS011;1248;48.694;10.160;2023-07-30T08:17:51;5.13;;;2.57;;
2474;SDS011;1248;48.694;10.160;2023-07-30T08:20:18;7.37;;;2.40;;
2474;SDS011;1248;48.694;10.160;2023-07-30T08:22:45;3.10;;;2.10;;
2474;SDS011;1248;48.694;10.160;2023-07-30T08:25:12;2.00;;;1.80;;
2474;SDS011;1248;48.694;10.160;2023-07-30T08:27:39;1.80;;;1.27;;
2474;SDS011;1248;48.694;10.160;2023-07-30T08:30:08;3.10;;;1.70;;
2474;SDS011;1248;48.694;10.160;2023-07-30T08:32:35;2.17;;;1.77;;
2474;SDS011;1248;48.694;10.160;2023-07-30T08:35:03;2.27;;;1.60;;
2474;SDS011;1248;48.694;10.160;2023-07-30T08:37:30;3.70;;;1.60;;
2474;SDS011;1248;48.694;10.160;2023-07-30T08:39:57;1.93;;;1.50;;
2474;SDS011;1248;48.694;10.160;2023-07-30T08:42:24;2.33;;;1.40;;
2474;SDS011;1248;48.694;10.160;2023-07-30T08:44:51;1.60;;;1.30;;
2474;SDS011;1248;48.694;10.160;2023-07-30T08:47:20;2.30;;;1.80;;
2474;SDS011;1248;48.694;10.160;2023-07-30T08:49:47;2.47;;;1.63;;
2474;SDS011;1248;48.694;10.160;2023-07-30T08:52:14;3.50;;;2.00;;
2474;SDS011;1248;48.694;10.160;2023-07-30T08:54:43;2.93;;;1.50;;
2474;SDS011;1248;48.694;10.160;2023-07-30T08:57:11;2.80;;;1.57;;
2474;SDS011;1248;48.694;10.160;2023-07-30T08:59:39;2.20;;;1.93;;
2474;SDS011;1248;48.694;10.160;2023-07-30T09:02:11;2.90;;;2.00;;
2474;SDS011;1248;48.694;10.160;2023-07-30T09:04:42;1.97;;;1.50;;
2474;SDS011;1248;48.694;10.160;2023-07-30T09:07:13;2.80;;;1.93;;
2474;SDS011;1248;48.694;10.160;2023-07-30T09:09:40;3.00;;;1.70;;
2474;SDS011;1248;48.694;10.160;2023-07-30T09:12:12;3.33;;;2.90;;
2474;SDS011;1248;48.694;10.160;2023-07-30T09:14:40;3.00;;;2.00;;
2474;SDS011;1248;48.694;10.160;2023-07-30T09:17:10;3.57;;;2.30;;
2474;SDS011;1248;48.694;10.160;2023-07-30T09:19:37;4.40;;;2.20;;
2474;SDS011;1248;48.694;10.160;2023-07-30T09:22:06;5.10;;;2.70;;
2474;SDS011;1248;48.694;10.160;2023-07-30T09:24:33;1.90;;;1.57;;
2474;SDS011;1248;48.694;10.160;2023-07-30T09:27:01;2.80;;;1.90;;
2474;SDS011;1248;48.694;10.160;2023-07-30T09:29:29;2.53;;;1.70;;
2474;SDS011;1248;48.694;10.160;2023-07-30T09:31:56;2.47;;;2.20;;
2474;SDS011;1248;48.694;10.160;2023-07-30T09:34:24;2.33;;;1.60;;
2474;SDS011;1248;48.694;10.160;2023-07-30T09:36:52;2.43;;;1.77;;
2474;SDS011;1248;48.694;10.160;2023-07-30T09:39:21;2.97;;;2.10;;
2474;SDS011;1248;48.694;10.160;2023-07-30T09:41:49;2.50;;;1.90;;
2474;SDS011;1248;48.694;10.160;2023-07-30T09:44:17;2.93;;;2.03;;
2474;SDS011;1248;48.694;10.160;2023-07-30T09:46:45;7.97;;;2.27;;
2474;SDS011;1248;48.694;10.160;2023-07-30T09:49:14;2.83;;;1.90;;
2474;SDS011;1248;48.694;10.160;2023-07-30T09:51:41;2.87;;;2.00;;
2474;SDS011;1248;48.694;10.160;2023-07-30T09:54:09;2.80;;;2.20;;
2474;SDS011;1248;48.694;10.160;2023-07-30T09:56:39;2.10;;;1.90;;
2474;SDS011;1248;48.694;10.160;2023-07-30T09:59:07;3.30;;;2.50;;
2474;SDS011;1248;48.694;10.160;2023-07-30T10:01:35;5.97;;;2.20;;
2474;SDS011;1248;48.694;10.160;2023-07-30T10:04:07;2.40;;;2.03;;
2474;SDS011;1248;48.694;10.160;2023-07-30T10:06:35;2.97;;;2.53;;
2474;SDS011;1248;48.694;10.160;2023-07-30T10:09:04;3.40;;;1.80;;
2474;SDS011;1248;48.694;10.160;2023-07-30T10:11:32;2.47;;;1.90;;
2474;SDS011;1248;48.694;10.160;2023-07-30T10:14:01;2.70;;;1.97;;
2474;SDS011;1248;48.694;10.160;2023-07-30T10:16:28;2.23;;;2.03;;
2474;SDS011;1248;48.694;10.160;2023-07-30T10:18:56;3.53;;;2.40;;
2474;SDS011;1248;48.694;10.160;2023-07-30T10:21:24;2.83;;;1.90;;
2474;SDS011;1248;48.694;10.160;2023-07-30T10:23:58;3.80;;;2.27;;
2474;SDS011;1248;48.694;10.160;2023-07-30T10:26:26;3.10;;;2.20;;
2474;SDS011;1248;48.694;10.160;2023-07-30T10:29:12;2.70;;;2.17;;
2474;SDS011;1248;48.694;10.160;2023-07-30T10:31:40;4.17;;;3.30;;
2474;SDS011;1248;48.694;10.160;2023-07-30T10:34:07;4.47;;;2.03;;
2474;SDS011;1248;48.694;10.160;2023-07-30T10:36:38;2.43;;;1.50;;
2474;SDS011;1248;48.694;10.160;2023-07-30T10:39:11;2.70;;;1.80;;
2474;SDS011;1248;48.694;10.160;2023-07-30T10:41:40;1.87;;;1.70;;
2474;SDS011;1248;48.694;10.160;2023-07-30T10:44:07;2.97;;;2.10;;
2474;SDS011;1248;48.694;10.160;2023-07-30T10:46:35;1.73;;;1.63;;
2474;SDS011;1248;48.694;10.160;2023-07-30T10:49:03;3.22;;;1.75;;
2474;SDS011;1248;48.694;10.160;2023-07-30T10:51:32;2.30;;;1.63;;
2474;SDS011;1248;48.694;10.160;2023-07-30T10:53:59;2.50;;;1.77;;
2474;SDS011;1248;48.694;10.160;2023-07-30T10:56:26;2.20;;;1.63;;
2474;SDS011;1248;48.694;10.160;2023-07-30T10:58:54;2.80;;;1.90;;
2474;SDS011;1248;48.694;10.160;2023-07-30T11:01:23;2.47;;;1.67;;
2474;SDS011;1248;48.694;10.160;2023-07-30T11:03:52;3.10;;;2.10;;
2474;SDS011;1248;48.694;10.160;2023-07-30T11:06:22;1.60;;;1.33;;
2474;SDS011;1248;48.694;10.160;2023-07-30T11:08:49;3.67;;;2.20;;
2474;SDS011;1248;48.694;10.160;2023-07-30T11:11:16;2.53;;;1.73;;
2474;SDS011;1248;48.694;10.160;2023-07-30T11:13:44;2.30;;;2.10;;
2474;SDS011;1248;48.694;10.160;2023-07-30T11:16:13;1.87;;;1.50;;
2474;SDS011;1248;48.694;10.160;2023-07-30T11:18:42;2.90;;;2.27;;
2474;SDS011;1248;48.694;10.160;2023-07-30T11:21:11;2.13;;;1.93;;
2474;SDS011;1248;48.694;10.160;2023-07-30T11:23:40;2.37;;;1.97;;
2474;SDS011;1248;48.694;10.160;2023-07-30T11:26:09;3.10;;;2.63;;
2474;SDS011;1248;48.694;10.160;2023-07-30T11:28:39;2.67;;;2.20;;
2474;SDS011;1248;48.694;10.160;2023-07-30T11:31:07;3.07;;;1.90;;
2474;SDS011;1248;48.694;10.160;2023-07-30T11:33:35;2.70;;;2.20;;
2474;SDS011;1248;48.694;10.160;2023-07-30T11:36:03;3.20;;;2.17;;
2474;SDS011;1248;48.694;10.160;2023-07-30T11:38:33;4.10;;;2.73;;
2474;SDS011;1248;48.694;10.160;2023-07-30T11:41:01;3.00;;;2.23;;
2474;SDS011;1248;48.694;10.160;2023-07-30T11:43:28;3.00;;;2.30;;
2474;SDS011;1248;48.694;10.160;2023-07-30T11:46:05;2.67;;;2.47;;
2474;SDS011;1248;48.694;10.160;2023-07-30T11:48:36;2.50;;;1.87;;
2474;SDS011;1248;48.694;10.160;2023-07-30T11:51:03;6.20;;;2.23;;
2474;SDS011;1248;48.694;10.160;2023-07-30T11:53:47;2.50;;;2.30;;
2474;SDS011;1248;48.694;10.160;2023-07-30T11:56:19;2.37;;;2.00;;
2474;SDS011;1248;48.694;10.160;2023-07-30T11:58:48;4.40;;;2.07;;
2474;SDS011;1248;48.694;10.160;2023-07-30T12:01:16;4.00;;;2.37;;
2474;SDS011;1248;48.694;10.160;2023-07-30T12:03:44;2.07;;;1.87;;
2474;SDS011;1248;48.694;10.160;2023-07-30T12:06:11;4.50;;;2.43;;
2474;SDS011;1248;48.694;10.160;2023-07-30T12:08:38;6.00;;;2.40;;
2474;SDS011;1248;48.694;10.160;2023-07-30T12:11:08;5.47;;;2.30;;
2474;SDS011;1248;48.694;10.160;2023-07-30T12:13:42;3.03;;;2.40;;
2474;SDS011;1248;48.694;10.160;2023-07-30T12:16:10;3.80;;;2.40;;
2474;SDS011;1248;48.694;10.160;2023-07-30T12:18:38;1.90;;;1.60;;
2474;SDS011;1248;48.694;10.160;2023-07-30T12:21:06;3.87;;;2.10;;
2474;SDS011;1248;48.694;10.160;2023-07-30T12:23:33;2.80;;;2.00;;
2474;SDS011;1248;48.694;10.160;2023-07-30T12:26:01;2.60;;;1.80;;
2474;SDS011;1248;48.694;10.160;2023-07-30T12:28:31;2.80;;;1.63;;
2474;SDS011;1248;48.694;10.160;2023-07-30T12:30:59;2.23;;;1.93;;
2474;SDS011;1248;48.694;10.160;2023-07-30T12:33:26;2.60;;;1.70;;
2474;SDS011;1248;48.694;10.160;2023-07-30T12:35:53;5.77;;;1.70;;
2474;SDS011;1248;48.694;10.160;2023-07-30T12:38:20;5.53;;;2.30;;
2474;SDS011;1248;48.694;10.160;2023-07-30T12:40:47;3.67;;;2.57;;
2474;SDS011;1248;48.694;10.160;2023-07-30T12:43:14;2.97;;;2.20;;
2474;SDS011;1248;48.694;10.160;2023-07-30T12:45:43;3.20;;;2.10;;
2474;SDS011;1248;48.694;10.160;2023-07-30T12:48:10;3.43;;;2.10;;
2474;SDS011;1248;48.694;10.160;2023-07-30T12:50:37;2.87;;;2.30;;
2474;SDS011;1248;48.694;10.160;2023-07-30T12:53:04;4.83;;;2.20;;
2474;SDS011;1248;48.694;10.160;2023-07-30T12:55:31;2.90;;;2.10;;
2474;SDS011;1248;48.694;10.160;2023-07-30T12:57:58;3.10;;;2.60;;
2474;SDS011;1248;48.694;10.160;2023-07-30T13:00:25;4.33;;;2.50;;
2474;SDS011;1248;48.694;10.160;2023-07-30T13:02:54;3.70;;;2.63;;
2474;SDS011;1248;48.694;10.160;2023-07-30T13:05:22;3.00;;;2.20;;
2474;SDS011;1248;48.694;10.160;2023-07-30T13:07:49;4.00;;;2.17;;
2474;SDS011;1248;48.694;10.160;2023-07-30T13:10:16;3.30;;;2.37;;
2474;SDS011;1248;48.694;10.160;2023-07-30T13:12:43;4.87;;;2.00;;
2474;SDS011;1248;48.694;10.160;2023-07-30T13:15:10;2.40;;;2.10;;
2474;SDS011;1248;48.694;10.160;2023-07-30T13:17:38;5.73;;;2.10;;
2474;SDS011;1248;48.694;10.160;2023-07-30T13:20:07;2.17;;;1.97;;
2474;SDS011;1248;48.694;10.160;2023-07-30T13:22:34;2.30;;;2.10;;
2474;SDS011;1248;48.694;10.160;2023-07-30T13:25:01;3.43;;;1.80;;
2474;SDS011;1248;48.694;10.160;2023-07-30T13:27:29;2.63;;;2.03;;
2474;SDS011;1248;48.694;10.160;2023-07-30T13:29:56;7.17;;;2.00;;
2474;SDS011;1248;48.694;10.160;2023-07-30T13:32:24;2.27;;;1.93;;
2474;SDS011;1248;48.694;10.160;2023-07-30T13:34:51;2.27;;;1.90;;
2474;SDS011;1248;48.694;10.160;2023-07-30T13:37:20;2.93;;;1.73;;
2474;SDS011;1248;48.694;10.160;2023-07-30T13:39:47;3.47;;;1.97;;
2474;SDS011;1248;48.694;10.160;2023-07-30T13:42:14;3.73;;;2.30;;
2474;SDS011;1248;48.694;10.160;2023-07-30T13:44:41;3.40;;;2.20;;
2474;SDS011;1248;48.694;10.160;2023-07-30T13:47:08;5.20;;;1.90;;
2474;SDS011;1248;48.694;10.160;2023-07-30T13:49:35;2.00;;;1.67;;
2474;SDS011;1248;48.694;10.160;2023-07-30T13:52:03;3.27;;;1.97;;
2474;SDS011;1248;48.694;10.160;2023-07-30T13:54:31;2.50;;;2.30;;
2474;SDS011;1248;48.694;10.160;2023-07-30T13:56:58;3.00;;;1.80;;
2474;SDS011;1248;48.694;10.160;2023-07-30T13:59:25;2.47;;;2.27;;
2474;SDS011;1248;48.694;10.160;2023-07-30T14:01:52;3.93;;;2.20;;
2474;SDS011;1248;48.694;10.160;2023-07-30T14:04:19;5.37;;;2.40;;
2474;SDS011;1248;48.694;10.160;2023-07-30T14:06:46;2.77;;;1.80;;
2474;SDS011;1248;48.694;10.160;2023-07-30T14:09:13;2.77;;;2.40;;
2474;SDS011;1248;48.694;10.160;2023-07-30T14:11:42;3.60;;;2.10;;
2474;SDS011;1248;48.694;10.160;2023-07-30T14:14:12;2.40;;;2.10;;
2474;SDS011;1248;48.694;10.160;2023-07-30T14:16:39;4.57;;;1.80;;
2474;SDS011;1248;48.694;10.160;2023-07-30T14:19:06;6.13;;;2.13;;
2474;SDS011;1248;48.694;10.160;2023-07-30T14:21:33;4.47;;;2.00;;
2474;SDS011;1248;48.694;10.160;2023-07-30T14:24:00;3.57;;;2.30;;
2474;SDS011;1248;48.694;10.160;2023-07-30T14:26:27;2.33;;;1.60;;
2474;SDS011;1248;48.694;10.160;2023-07-30T14:28:55;2.67;;;2.03;;
2474;SDS011;1248;48.694;10.160;2023-07-30T14:31:22;2.47;;;2.27;;
2474;SDS011;1248;48.694;10.160;2023-07-30T14:33:49;3.00;;;1.93;;
2474;SDS011;1248;48.694;10.160;2023-07-30T14:36:17;3.27;;;2.50;;
2474;SDS011;1248;48.694;10.160;2023-07-30T14:38:44;2.60;;;1.70;;
2474;SDS011;1248;48.694;10.160;2023-07-30T14:41:11;4.80;;;1.83;;
2474;SDS011;1248;48.694;10.160;2023-07-30T14:43:38;5.30;;;1.87;;
2474;SDS011;1248;48.694;10.160;2023-07-30T14:46:06;2.63;;;1.80;;
2474;SDS011;1248;48.694;10.160;2023-07-30T14:48:39;5.57;;;2.53;;
2474;SDS011;1248;48.694;10.160;2023-07-30T14:51:06;2.90;;;2.40;;
2474;SDS011;1248;48.694;10.160;2023-07-30T14:53:33;2.27;;;1.83;;
2474;SDS011;1248;48.694;10.160;2023-07-30T14:56:01;2.60;;;1.93;;
2474;SDS011;1248;48.694;10.160;2023-07-30T14:58:28;4.00;;;2.03;;
2474;SDS011;1248;48.694;10.160;2023-07-30T15:00:55;3.37;;;1.90;;
2474;SDS011;1248;48.694;10.160;2023-07-30T15:03:23;2.40;;;1.80;;
2474;SDS011;1248;48.694;10.160;2023-07-30T15:05:51;2.27;;;1.77;;